createdAt,value
2022-12-03T00:02:04.810Z,101099.41
2022-12-03T00:04:31.135Z,101094.19
2022-12-03T00:06:57.459Z,101089.84
2022-12-03T00:09:23.777Z,101093.31
2022-12-03T00:11:50.103Z,101083.25
2022-12-03T00:14:16.418Z,101086.16
2022-12-03T00:16:42.743Z,101079.84
2022-12-03T00:19:09.089Z,101084.19
2022-12-03T00:21:35.473Z,101088.66
2022-12-03T00:24:01.820Z,101088.09
2022-12-03T00:26:28.130Z,101077.75
2022-12-03T00:28:54.968Z,101078.03
2022-12-03T00:31:24.488Z,101084.03
2022-12-03T00:33:50.828Z,101075.22
2022-12-03T00:36:17.130Z,101072.03
2022-12-03T00:38:43.448Z,101077.72
2022-12-03T00:41:09.771Z,101072.22
2022-12-03T00:43:36.096Z,101081.28
2022-12-03T00:46:02.468Z,101078.31
2022-12-03T00:48:28.843Z,101071.66
2022-12-03T00:50:55.164Z,101066.53
2022-12-03T00:53:21.495Z,101071.66
2022-12-03T00:55:47.821Z,101080.28
2022-12-03T00:58:14.149Z,101081.09
2022-12-03T01:00:40.456Z,101077.41
2022-12-03T01:03:06.806Z,101077.75
2022-12-03T01:05:33.117Z,101069.69
2022-12-03T01:07:59.481Z,101070.87
2022-12-03T01:10:25.879Z,101076.72
2022-12-03T01:12:52.198Z,101073.91
2022-12-03T01:15:18.537Z,101068.25
2022-12-03T01:17:44.869Z,101073.87
2022-12-03T01:20:11.236Z,101072.59
2022-12-03T01:22:37.627Z,101072.97
2022-12-03T01:25:03.937Z,101071.16
2022-12-03T01:27:30.311Z,101077.87
2022-12-03T01:29:56.640Z,101066.59
2022-12-03T01:32:22.977Z,101062.06
2022-12-03T01:34:49.329Z,101063.19
2022-12-03T01:37:15.640Z,101066.03
2022-12-03T01:39:41.969Z,101062.31
2022-12-03T01:42:08.299Z,101065.06
2022-12-03T01:44:34.650Z,101066.88
2022-12-03T01:47:01.087Z,101068.53
2022-12-03T01:49:27.536Z,101072.75
2022-12-03T01:51:53.854Z,101077.31
2022-12-03T01:54:20.170Z,101071.91
2022-12-03T01:56:46.482Z,101065.34
2022-12-03T01:59:12.798Z,101061.31
2022-12-03T02:01:39.213Z,101059.12
2022-12-03T02:04:05.606Z,101054.22
2022-12-03T02:06:31.942Z,101060.78
2022-12-03T02:09:00.266Z,101057.22
2022-12-03T02:11:26.649Z,101053.47
2022-12-03T02:13:52.963Z,101051.47
2022-12-03T02:16:19.337Z,101044.41
2022-12-03T02:18:45.674Z,101040.94
2022-12-03T02:21:12.000Z,101050.78
2022-12-03T02:23:38.326Z,101048.16
2022-12-03T02:26:04.629Z,101063.53
2022-12-03T02:28:30.998Z,101054.03
2022-12-03T02:30:57.337Z,101050.13
2022-12-03T02:33:23.687Z,101054.72
2022-12-03T02:35:50.062Z,101046.09
2022-12-03T02:38:16.393Z,101039.78
2022-12-03T02:40:42.714Z,101046.69
2022-12-03T02:43:09.810Z,101044.06
2022-12-03T02:45:36.155Z,101051.44
2022-12-03T02:48:02.496Z,101043.13
2022-12-03T02:50:28.828Z,101048.78
2022-12-03T02:52:55.197Z,101047.84
2022-12-03T02:55:21.512Z,101049.00
2022-12-03T02:57:47.886Z,101052.75
2022-12-03T03:00:14.223Z,101047.19
2022-12-03T03:02:40.591Z,101050.53
2022-12-03T03:05:07.017Z,101043.56
2022-12-03T03:07:33.371Z,101044.38
2022-12-03T03:09:59.738Z,101047.25
2022-12-03T03:12:26.087Z,101045.84
2022-12-03T03:14:52.607Z,101045.34
2022-12-03T03:17:19.129Z,101047.56
2022-12-03T03:19:45.517Z,101048.91
2022-12-03T03:22:11.839Z,101040.69
2022-12-03T03:24:38.159Z,101044.59
2022-12-03T03:27:04.474Z,101044.81
2022-12-03T03:29:30.782Z,101052.38
2022-12-03T03:31:57.143Z,101048.34
2022-12-03T03:34:23.515Z,101045.81
2022-12-03T03:36:49.837Z,101045.16
2022-12-03T03:39:16.171Z,101039.72
2022-12-03T03:41:42.479Z,101039.47
2022-12-03T03:44:08.786Z,101041.47
2022-12-03T03:46:35.241Z,101042.16
2022-12-03T03:49:01.598Z,101048.09
2022-12-03T03:51:27.954Z,101041.91
2022-12-03T03:53:54.313Z,101038.66
2022-12-03T03:56:20.640Z,101044.25
2022-12-03T03:58:46.949Z,101038.75
2022-12-03T04:01:13.322Z,101045.16
2022-12-03T04:03:39.688Z,101033.59
2022-12-03T04:06:06.045Z,101040.47
2022-12-03T04:08:32.349Z,101030.94
2022-12-03T04:11:17.422Z,101026.13
2022-12-03T04:13:43.737Z,101038.69
2022-12-03T04:16:10.163Z,101031.03
2022-12-03T04:18:42.881Z,101025.47
2022-12-03T04:21:27.959Z,101030.47
2022-12-03T04:23:54.286Z,101027.34
2022-12-03T04:26:39.356Z,101015.66
2022-12-03T04:29:05.955Z,101021.28
2022-12-03T04:31:51.006Z,101021.28
2022-12-03T04:34:35.983Z,101022.84
2022-12-03T04:37:02.296Z,101026.56
2022-12-03T04:39:28.633Z,101023.94
2022-12-03T04:41:54.953Z,101016.81
2022-12-03T04:44:33.619Z,101018.72
2022-12-03T04:46:59.942Z,101021.84
2022-12-03T04:49:26.278Z,101022.09
2022-12-03T04:51:52.621Z,101029.75
2022-12-03T04:54:19.015Z,101027.53
2022-12-03T04:56:45.396Z,101024.84
2022-12-03T04:59:15.920Z,101029.69
2022-12-03T05:01:42.751Z,101032.44
2022-12-03T05:04:09.180Z,101018.53
2022-12-03T05:06:35.511Z,101029.34
2022-12-03T05:09:01.813Z,101033.66
2022-12-03T05:11:28.174Z,101023.47
2022-12-03T05:13:54.524Z,101017.19
2022-12-03T05:16:20.916Z,101021.06
2022-12-03T05:18:47.313Z,101024.28
2022-12-03T05:21:13.629Z,101012.87
2022-12-03T05:23:39.956Z,101010.69
2022-12-03T05:26:06.281Z,101006.59
2022-12-03T05:28:32.600Z,101010.28
2022-12-03T05:30:58.977Z,101011.78
2022-12-03T05:33:25.361Z,101017.13
2022-12-03T05:35:51.666Z,101011.56
2022-12-03T05:38:17.985Z,101007.75
2022-12-03T05:40:44.298Z,101002.75
2022-12-03T05:43:10.611Z,101002.53
2022-12-03T05:45:36.997Z,101004.19
2022-12-03T05:48:03.322Z,101001.00
2022-12-03T05:50:29.695Z,101000.06
2022-12-03T05:52:56.013Z,100999.13
2022-12-03T05:55:22.344Z,101007.94
2022-12-03T05:57:48.678Z,100996.37
2022-12-03T06:00:15.018Z,100998.16
2022-12-03T06:02:41.429Z,101004.25
2022-12-03T06:05:07.938Z,101006.16
2022-12-03T06:07:34.322Z,101008.62
2022-12-03T06:10:02.610Z,101007.38
2022-12-03T06:12:28.935Z,101001.88
2022-12-03T06:14:55.585Z,100998.31
2022-12-03T06:17:22.154Z,101001.72
2022-12-03T06:19:48.533Z,101003.91
2022-12-03T06:22:14.874Z,100995.91
2022-12-03T06:24:41.208Z,101007.09
2022-12-03T06:27:07.537Z,100992.22
2022-12-03T06:29:33.855Z,101004.31
2022-12-03T06:32:00.206Z,101000.47
2022-12-03T06:34:26.515Z,101008.59
2022-12-03T06:36:52.897Z,101001.88
2022-12-03T06:39:19.217Z,101003.41
2022-12-03T06:41:45.526Z,101000.34
2022-12-03T06:44:11.962Z,101008.19
2022-12-03T06:46:38.440Z,101004.34
2022-12-03T06:49:04.858Z,101004.56
2022-12-03T06:51:31.246Z,101005.56
2022-12-03T06:53:57.623Z,101005.41
2022-12-03T06:56:23.955Z,101011.00
2022-12-03T06:58:50.268Z,101007.50
2022-12-03T07:01:16.675Z,101011.06
2022-12-03T07:03:43.020Z,101004.47
2022-12-03T07:06:09.362Z,101005.81
2022-12-03T07:08:35.682Z,101013.09
2022-12-03T07:11:01.999Z,101005.44
2022-12-03T07:13:28.323Z,101005.94
2022-12-03T07:15:54.695Z,101007.69
2022-12-03T07:18:21.108Z,101012.03
2022-12-03T07:20:47.488Z,101006.00
2022-12-03T07:23:13.814Z,101013.37
2022-12-03T07:25:40.132Z,101012.53
2022-12-03T07:28:06.492Z,101004.16
2022-12-03T07:30:32.812Z,101005.84
2022-12-03T07:32:59.126Z,100996.78
2022-12-03T07:35:25.447Z,100996.16
2022-12-03T07:37:51.767Z,101006.50
2022-12-03T07:40:18.079Z,100996.69
2022-12-03T07:42:44.406Z,100998.41
2022-12-03T07:45:10.740Z,101004.47
2022-12-03T07:47:37.071Z,100999.09
2022-12-03T07:50:08.136Z,100999.53
2022-12-03T07:52:34.477Z,101004.22
2022-12-03T07:55:00.906Z,101006.13
2022-12-03T07:57:27.210Z,101003.94
2022-12-03T07:59:53.555Z,101002.44
2022-12-03T08:02:21.865Z,101002.34
2022-12-03T08:04:48.521Z,100997.06
2022-12-03T08:07:14.835Z,100991.81
2022-12-03T08:09:41.155Z,100996.34
2022-12-03T08:12:07.512Z,100998.19
2022-12-03T08:14:33.826Z,100995.59
2022-12-03T08:17:00.146Z,100997.41
2022-12-03T08:19:26.459Z,101001.09
2022-12-03T08:21:56.603Z,100994.03
2022-12-03T08:24:27.352Z,100988.22
2022-12-03T08:26:53.691Z,100984.41
2022-12-03T08:29:20.010Z,100986.78
2022-12-03T08:31:46.340Z,100978.12
2022-12-03T08:34:12.819Z,100979.94
2022-12-03T08:36:39.436Z,100982.84
2022-12-03T08:39:05.742Z,100982.53
2022-12-03T08:41:50.818Z,100982.75
2022-12-03T08:44:17.117Z,100988.53
2022-12-03T08:46:43.471Z,100978.28
2022-12-03T08:49:09.835Z,100981.19
2022-12-03T08:51:36.165Z,100984.19
2022-12-03T08:54:02.586Z,100982.41
2022-12-03T08:56:29.019Z,100994.72
2022-12-03T08:58:55.367Z,101003.81
2022-12-03T09:01:21.758Z,100997.72
2022-12-03T09:03:48.668Z,101003.44
2022-12-03T09:06:15.057Z,101002.84
2022-12-03T09:08:41.404Z,101003.47
2022-12-03T09:11:07.743Z,100994.41
2022-12-03T09:13:34.071Z,100999.16
2022-12-03T09:16:00.393Z,100998.31
2022-12-03T09:18:26.720Z,100994.56
2022-12-03T09:20:53.139Z,100990.47
2022-12-03T09:23:19.462Z,100993.72
2022-12-03T09:25:45.776Z,100999.50
2022-12-03T09:28:12.101Z,100999.44
2022-12-03T09:30:38.405Z,101003.94
2022-12-03T09:33:04.733Z,100990.09
2022-12-03T09:35:31.123Z,100993.31
2022-12-03T09:37:57.448Z,100995.44
2022-12-03T09:40:23.775Z,100984.28
2022-12-03T09:42:50.103Z,100986.81
2022-12-03T09:45:16.422Z,100990.31
2022-12-03T09:47:42.913Z,100989.34
2022-12-03T09:50:09.235Z,100990.03
2022-12-03T09:52:35.839Z,100990.56
2022-12-03T09:55:02.367Z,100992.34
2022-12-03T09:57:28.928Z,100988.03
2022-12-03T09:59:55.557Z,100988.97
2022-12-03T10:02:22.074Z,100985.28
2022-12-03T10:04:48.491Z,100976.37
2022-12-03T10:07:14.883Z,100982.16
2022-12-03T10:09:41.240Z,100981.41
2022-12-03T10:12:07.598Z,100984.09
2022-12-03T10:14:33.934Z,100981.63
2022-12-03T10:17:00.355Z,100972.91
2022-12-03T10:19:26.747Z,100973.19
2022-12-03T10:21:53.093Z,100973.72
2022-12-03T10:24:19.504Z,100966.91
2022-12-03T10:26:45.855Z,100963.63
2022-12-03T10:29:12.249Z,100961.47
2022-12-03T10:31:38.595Z,100947.09
2022-12-03T10:34:04.905Z,100957.34
2022-12-03T10:36:31.251Z,100951.56
2022-12-03T10:38:57.570Z,100952.97
2022-12-03T10:41:23.911Z,100956.25
2022-12-03T10:43:50.373Z,100945.31
2022-12-03T10:46:16.793Z,100946.03
2022-12-03T10:48:43.302Z,100943.53
2022-12-03T10:51:09.647Z,100949.03
2022-12-03T10:53:35.990Z,100942.44
2022-12-03T10:56:02.359Z,100952.59
2022-12-03T10:58:28.690Z,100946.31
2022-12-03T11:00:55.069Z,100952.16
2022-12-03T11:03:21.526Z,100951.34
2022-12-03T11:05:48.021Z,100947.66
2022-12-03T11:08:14.430Z,100943.72
2022-12-03T11:10:40.788Z,100946.00
2022-12-03T11:13:07.183Z,100940.66
2022-12-03T11:15:33.535Z,100935.13
2022-12-03T11:18:00.729Z,100941.28
2022-12-03T11:20:27.089Z,100932.88
2022-12-03T11:22:53.397Z,100927.38
2022-12-03T11:25:19.906Z,100936.66
2022-12-03T11:27:46.222Z,100926.25
2022-12-03T11:30:12.579Z,100925.97
2022-12-03T11:32:38.942Z,100919.63
2022-12-03T11:35:05.265Z,100916.66
2022-12-03T11:37:31.595Z,100918.03
2022-12-03T11:39:57.903Z,100913.62
2022-12-03T11:42:27.314Z,100911.72
2022-12-03T11:44:53.632Z,100909.59
2022-12-03T11:47:19.961Z,100910.63
2022-12-03T11:49:46.912Z,100906.53
2022-12-03T11:52:13.288Z,100908.97
2022-12-03T11:54:39.624Z,100901.00
2022-12-03T11:57:06.010Z,100900.53
2022-12-03T11:59:32.345Z,100902.16
2022-12-03T12:01:58.653Z,100896.34
2022-12-03T12:04:25.003Z,100890.66
2022-12-03T12:06:53.454Z,100895.34
2022-12-03T12:09:19.972Z,100895.91
2022-12-03T12:11:46.285Z,100894.00
2022-12-03T12:14:12.611Z,100889.88
2022-12-03T12:16:39.076Z,100887.13
2022-12-03T12:19:05.471Z,100881.06
2022-12-03T12:21:31.856Z,100890.97
2022-12-03T12:23:58.186Z,100884.63
2022-12-03T12:26:24.626Z,100882.13
2022-12-03T12:28:50.958Z,100869.16
2022-12-03T12:31:17.353Z,100870.03
2022-12-03T12:33:43.746Z,100867.00
2022-12-03T12:36:10.104Z,100865.06
2022-12-03T12:38:36.413Z,100860.94
2022-12-03T12:41:02.736Z,100863.41
2022-12-03T12:43:30.887Z,100855.69
2022-12-03T12:45:57.232Z,100854.59
2022-12-03T12:48:23.599Z,100854.31
2022-12-03T12:50:49.915Z,100852.41
2022-12-03T12:53:16.404Z,100854.34
2022-12-03T12:55:42.709Z,100848.25
2022-12-03T12:58:09.197Z,100839.72
2022-12-03T13:00:35.608Z,100830.91
2022-12-03T13:03:02.003Z,100829.81
2022-12-03T13:05:28.355Z,100820.41
2022-12-03T13:07:54.821Z,100829.50
2022-12-03T13:10:21.319Z,100832.00
2022-12-03T13:12:47.679Z,100830.06
2022-12-03T13:15:14.015Z,100829.53
2022-12-03T13:17:40.337Z,100838.62
2022-12-03T13:20:10.614Z,100832.81
2022-12-03T13:22:37.204Z,100820.44
2022-12-03T13:25:03.562Z,100822.66
2022-12-03T13:27:30.066Z,100819.59
2022-12-03T13:29:56.780Z,100818.22
2022-12-03T13:32:23.403Z,100817.09
2022-12-03T13:34:50.680Z,100817.66
2022-12-03T13:37:16.995Z,100815.47
2022-12-03T13:39:43.494Z,100819.56
2022-12-03T13:42:28.848Z,100827.84
2022-12-03T13:44:55.177Z,100833.66
2022-12-03T13:47:21.483Z,100822.59
2022-12-03T13:49:47.816Z,100827.03
2022-12-03T13:52:14.150Z,100826.75
2022-12-03T13:54:40.474Z,100823.72
2022-12-03T13:57:06.816Z,100827.56
2022-12-03T13:59:33.158Z,100824.81
2022-12-03T14:01:59.537Z,100823.16
2022-12-03T14:04:27.732Z,100815.16
2022-12-03T14:06:54.060Z,100822.88
2022-12-03T14:09:20.406Z,100827.00
2022-12-03T14:12:05.526Z,100824.28
2022-12-03T14:14:31.867Z,100820.13
2022-12-03T14:17:00.071Z,100814.62
2022-12-03T14:19:26.842Z,100808.84
2022-12-03T14:21:53.320Z,100812.72
2022-12-03T14:24:19.637Z,100817.41
2022-12-03T14:26:45.965Z,100826.75
2022-12-03T14:29:12.293Z,100810.22
2022-12-03T14:31:38.677Z,100820.44
2022-12-03T14:34:05.031Z,100816.56
2022-12-03T14:36:31.348Z,100817.41
2022-12-03T14:38:57.794Z,100813.53
2022-12-03T14:41:42.979Z,100813.25
2022-12-03T14:44:09.343Z,100817.13
2022-12-03T14:46:35.660Z,100814.66
2022-12-03T14:49:01.995Z,100818.75
2022-12-03T14:51:28.384Z,100822.63
2022-12-03T14:53:54.766Z,100824.84
2022-12-03T14:56:21.088Z,100819.34
2022-12-03T14:58:47.474Z,100822.09
2022-12-03T15:01:14.902Z,100815.47
2022-12-03T15:03:41.397Z,100819.34
2022-12-03T15:06:07.711Z,100814.38
2022-12-03T15:08:34.043Z,100821.81
2022-12-03T15:11:00.415Z,100821.81
2022-12-03T15:13:26.921Z,100824.81
2022-12-03T15:15:53.233Z,100812.72
2022-12-03T15:18:19.557Z,100816.59
2022-12-03T15:20:46.015Z,100824.53
2022-12-03T15:23:14.435Z,100822.03
2022-12-03T15:25:41.101Z,100817.34
2022-12-03T15:28:07.497Z,100814.91
2022-12-03T15:30:35.902Z,100818.22
2022-12-03T15:33:02.765Z,100820.41
2022-12-03T15:35:29.162Z,100820.13
2022-12-03T15:37:55.469Z,100828.12
2022-12-03T15:40:21.781Z,100816.00
2022-12-03T15:42:48.116Z,100816.81
2022-12-03T15:45:15.520Z,100817.94
2022-12-03T15:47:41.979Z,100822.63
2022-12-03T15:50:08.307Z,100817.34
2022-12-03T15:52:34.634Z,100814.06
2022-12-03T15:55:00.992Z,100811.31
2022-12-03T15:57:27.315Z,100805.00
2022-12-03T15:59:55.236Z,100814.34
2022-12-03T16:02:21.846Z,100811.03
2022-12-03T16:04:48.192Z,100807.75
2022-12-03T16:07:14.512Z,100820.13
2022-12-03T16:09:40.884Z,100817.66
2022-12-03T16:12:07.213Z,100814.34
2022-12-03T16:14:33.592Z,100814.34
2022-12-03T16:17:00.337Z,100813.78
2022-12-03T16:19:26.650Z,100809.38
2022-12-03T16:21:52.965Z,100807.44
2022-12-03T16:24:19.281Z,100812.97
2022-12-03T16:26:45.599Z,100813.25
2022-12-03T16:29:11.922Z,100809.09
2022-12-03T16:31:38.355Z,100811.84
2022-12-03T16:34:04.821Z,100803.34
2022-12-03T16:36:31.149Z,100805.53
2022-12-03T16:38:58.177Z,100808.28
2022-12-03T16:41:24.523Z,100808.31
2022-12-03T16:43:50.917Z,100803.03
2022-12-03T16:46:17.280Z,100803.03
2022-12-03T16:48:43.739Z,100806.34
2022-12-03T16:51:10.071Z,100802.47
2022-12-03T16:53:36.419Z,100801.12
2022-12-03T16:56:02.822Z,100809.66
2022-12-03T16:58:29.174Z,100798.91
2022-12-03T17:00:55.499Z,100797.81
2022-12-03T17:03:21.969Z,100791.47
2022-12-03T17:05:48.310Z,100793.41
2022-12-03T17:08:14.709Z,100790.94
2022-12-03T17:10:41.249Z,100785.13
2022-12-03T17:13:09.674Z,100794.25
2022-12-03T17:15:36.799Z,100794.50
2022-12-03T17:18:06.267Z,100793.16
2022-12-03T17:20:32.619Z,100800.28
2022-12-03T17:22:59.192Z,100797.81
2022-12-03T17:25:25.526Z,100792.84
2022-12-03T17:27:51.842Z,100792.03
2022-12-03T17:30:18.234Z,100800.53
2022-12-03T17:32:44.579Z,100784.06
2022-12-03T17:35:10.906Z,100780.72
2022-12-03T17:37:37.266Z,100783.50
2022-12-03T17:40:03.666Z,100791.47
2022-12-03T17:42:30.006Z,100784.59
2022-12-03T17:44:56.321Z,100774.12
2022-12-03T17:47:22.643Z,100782.37
2022-12-03T17:49:48.978Z,100779.09
2022-12-03T17:52:15.303Z,100776.06
2022-12-03T17:55:08.544Z,100771.94
2022-12-03T17:57:27.941Z,100769.72
2022-12-03T17:59:54.405Z,100771.94
2022-12-03T18:02:20.932Z,100765.91
2022-12-03T18:04:47.277Z,100770.28
2022-12-03T18:07:13.786Z,100763.41
2022-12-03T18:09:40.106Z,100759.81
2022-12-03T18:12:06.685Z,100760.62
2022-12-03T18:14:33.025Z,100758.75
2022-12-03T18:16:59.332Z,100753.22
2022-12-03T18:19:25.712Z,100763.13
2022-12-03T18:21:52.036Z,100761.22
2022-12-03T18:24:18.369Z,100763.41
2022-12-03T18:26:44.692Z,100767.53
2022-12-03T18:29:11.008Z,100770.84
2022-12-03T18:31:37.344Z,100765.59
2022-12-03T18:34:07.459Z,100765.06
2022-12-03T18:36:33.773Z,100762.31
2022-12-03T18:39:01.107Z,100774.97
2022-12-03T18:41:27.418Z,100771.38
2022-12-03T18:43:53.762Z,100768.66
2022-12-03T18:49:06.587Z,100761.47
2022-12-03T18:51:32.901Z,100775.53
2022-12-03T18:53:59.235Z,100767.53
2022-12-03T18:56:25.754Z,100760.66
2022-12-03T18:58:52.067Z,100760.38
2022-12-03T19:01:18.491Z,100756.50
2022-12-03T19:03:44.848Z,100759.53
2022-12-03T19:06:16.905Z,100759.81
2022-12-03T19:11:16.440Z,100751.84
2022-12-03T19:13:42.755Z,100764.22
2022-12-03T19:16:09.173Z,100759.25
2022-12-03T19:18:35.534Z,100762.56
2022-12-03T19:21:01.937Z,100763.66
2022-12-03T19:23:28.274Z,100766.41
2022-12-03T19:25:54.594Z,100754.06
2022-12-03T19:28:20.908Z,100758.16
2022-12-03T19:30:50.356Z,100759.81
2022-12-03T19:33:18.264Z,100763.13
2022-12-03T19:35:44.823Z,100760.38
2022-12-03T19:38:11.191Z,100759.25
2022-12-03T19:40:37.540Z,100759.56
2022-12-03T19:43:03.879Z,100760.38
2022-12-03T19:45:30.257Z,100760.66
2022-12-03T19:47:56.656Z,100762.00
2022-12-03T19:50:23.797Z,100770.56
2022-12-03T19:52:50.212Z,100767.50
2022-12-03T19:55:19.546Z,100770.03
2022-12-03T19:57:45.907Z,100768.34
2022-12-03T20:00:12.341Z,100764.50
2022-12-03T20:02:38.728Z,100767.81
2022-12-03T20:05:05.090Z,100759.56
2022-12-03T20:07:31.593Z,100776.34
2022-12-03T20:09:58.338Z,100763.13
2022-12-03T20:12:24.834Z,100758.16
2022-12-03T20:14:51.743Z,100761.47
2022-12-03T20:17:18.060Z,100766.69
2022-12-03T20:19:44.372Z,100766.44
2022-12-03T20:22:10.731Z,100763.13
2022-12-03T20:24:37.045Z,100757.59
2022-12-03T20:27:03.366Z,100770.56
2022-12-03T20:29:29.677Z,100760.06
2022-12-03T20:31:56.046Z,100760.91
2022-12-03T20:34:22.390Z,100754.84
2022-12-03T20:36:48.776Z,100758.44
2022-12-03T20:39:15.147Z,100759.84
2022-12-03T20:41:41.490Z,100764.78
2022-12-03T20:44:08.012Z,100747.72
2022-12-03T20:46:34.683Z,100754.59
2022-12-03T20:49:01.147Z,100749.91
2022-12-03T20:51:27.583Z,100749.63
2022-12-03T20:53:53.915Z,100754.06
2022-12-03T20:56:20.575Z,100750.19
2022-12-03T20:58:46.939Z,100754.59
2022-12-03T21:01:15.947Z,100754.06
2022-12-03T21:03:44.271Z,100747.97
2022-12-03T21:06:10.598Z,100750.72
2022-12-03T21:08:41.700Z,100748.81
2022-12-03T21:11:09.011Z,100752.37
2022-12-03T21:13:35.383Z,100754.59
2022-12-03T21:16:02.143Z,100746.88
2022-12-03T21:18:28.465Z,100754.84
2022-12-03T21:20:54.803Z,100754.59
2022-12-03T21:23:21.110Z,100747.97
2022-12-03T21:25:47.413Z,100748.22
2022-12-03T21:28:13.723Z,100748.50
2022-12-03T21:30:40.144Z,100738.59
2022-12-03T21:33:06.567Z,100732.56
2022-12-03T21:35:32.889Z,100735.03
2022-12-03T21:37:59.353Z,100743.03
2022-12-03T21:40:25.654Z,100738.31
2022-12-03T21:42:51.977Z,100738.31
2022-12-03T21:45:18.372Z,100736.41
2022-12-03T21:47:44.764Z,100735.03
2022-12-03T21:50:11.602Z,100737.78
2022-12-03T21:52:37.953Z,100735.56
2022-12-03T21:55:04.363Z,100736.69
2022-12-03T21:57:30.707Z,100736.38
2022-12-03T21:59:57.526Z,100734.47
2022-12-03T22:02:24.128Z,100735.03
2022-12-03T22:04:50.726Z,100733.94
2022-12-03T22:07:17.203Z,100735.84
2022-12-03T22:09:43.566Z,100737.78
2022-12-03T22:12:09.884Z,100735.56
2022-12-03T22:14:36.296Z,100736.41
2022-12-03T22:17:02.608Z,100734.50
2022-12-03T22:19:28.932Z,100732.56
2022-12-03T22:21:55.297Z,100733.94
2022-12-03T22:24:21.696Z,100726.25
2022-12-03T22:26:48.018Z,100738.63
2022-12-03T22:29:14.995Z,100732.03
2022-12-03T22:31:41.300Z,100736.97
2022-12-03T22:34:07.648Z,100728.44
2022-12-03T22:36:33.975Z,100728.41
2022-12-03T22:39:00.314Z,100732.00
2022-12-03T22:41:26.635Z,100734.50
2022-12-03T22:43:52.960Z,100738.06
2022-12-03T22:46:19.382Z,100728.69
2022-12-03T22:48:45.774Z,100720.97
2022-12-03T22:51:12.229Z,100715.47
2022-12-03T22:53:38.545Z,100714.41
2022-12-03T22:56:04.865Z,100729.81
2022-12-03T22:58:31.830Z,100717.41
2022-12-03T23:01:02.604Z,100710.78
2022-12-03T23:03:29.883Z,100706.97
2022-12-03T23:05:56.338Z,100704.75
2022-12-03T23:08:22.740Z,100709.16
2022-12-03T23:10:49.060Z,100695.38
2022-12-03T23:13:15.399Z,100700.59
2022-12-03T23:15:41.752Z,100692.34
2022-12-03T23:18:08.077Z,100692.91
2022-12-03T23:20:34.407Z,100691.53
2022-12-03T23:23:00.718Z,100697.03
2022-12-03T23:25:27.037Z,100688.78
2022-12-03T23:27:53.337Z,100683.56
2022-12-03T23:30:19.709Z,100692.91
2022-12-03T23:32:46.043Z,100681.34
2022-12-03T23:35:12.402Z,100673.38
2022-12-03T23:37:38.728Z,100680.81
2022-12-03T23:40:05.044Z,100681.34
2022-12-03T23:42:31.349Z,100670.59
2022-12-03T23:44:57.655Z,100670.91
2022-12-03T23:47:24.243Z,100664.25
2022-12-03T23:49:50.612Z,100667.28
2022-12-03T23:52:16.935Z,100675.56
2022-12-03T23:54:43.250Z,100671.69
2022-12-03T23:57:09.563Z,100669.22
2022-12-03T23:59:35.866Z,100675.03
